sensor_id;sensor_type;location;lat;lon;timestamp;P1;durP1;ratioP1;P2;durP2;ratioP2
32323;SDS011;25666;44.350;9.222;2023-02-15T00:01:09;76.05;;;32.08;;
32323;SDS011;25666;44.350;9.222;2023-02-15T00:03:36;82.65;;;33.15;;
32323;SDS011;25666;44.350;9.222;2023-02-15T00:06:02;70.65;;;31.65;;
32323;SDS011;25666;44.350;9.222;2023-02-15T00:08:28;74.60;;;32.45;;
32323;SDS011;25666;44.350;9.222;2023-02-15T00:11:02;74.70;;;30.42;;
32323;SDS011;25666;44.350;9.222;2023-02-15T00:13:29;79.03;;;32.78;;
32323;SDS011;25666;44.350;9.222;2023-02-15T00:15:56;86.35;;;34.22;;
32323;SDS011;25666;44.350;9.222;2023-02-15T00:18:26;75.60;;;32.78;;
32323;SDS011;25666;44.350;9.222;2023-02-15T00:20:51;84.45;;;34.05;;
32323;SDS011;25666;44.350;9.222;2023-02-15T00:23:17;84.35;;;33.70;;
32323;SDS011;25666;44.350;9.222;2023-02-15T00:25:42;72.65;;;31.15;;
32323;SDS011;25666;44.350;9.222;2023-02-15T00:28:08;81.38;;;31.85;;
32323;SDS011;25666;44.350;9.222;2023-02-15T00:30:33;78.53;;;32.47;;
32323;SDS011;25666;44.350;9.222;2023-02-15T00:32:59;84.47;;;35.90;;
32323;SDS011;25666;44.350;9.222;2023-02-15T00:35:25;78.10;;;31.40;;
32323;SDS011;25666;44.350;9.222;2023-02-15T00:37:50;76.70;;;31.38;;
32323;SDS011;25666;44.350;9.222;2023-02-15T00:40:17;75.25;;;30.30;;
32323;SDS011;25666;44.350;9.222;2023-02-15T00:42:43;76.95;;;32.75;;
32323;SDS011;25666;44.350;9.222;2023-02-15T00:45:09;75.70;;;30.92;;
32323;SDS011;25666;44.350;9.222;2023-02-15T00:47:34;88.13;;;32.17;;
32323;SDS011;25666;44.350;9.222;2023-02-15T00:49:59;73.68;;;32.25;;
32323;SDS011;25666;44.350;9.222;2023-02-15T00:52:25;80.97;;;33.85;;
32323;SDS011;25666;44.350;9.222;2023-02-15T00:54:50;82.70;;;32.20;;
32323;SDS011;25666;44.350;9.222;2023-02-15T00:57:16;85.40;;;33.72;;
32323;SDS011;25666;44.350;9.222;2023-02-15T00:59:41;92.20;;;33.58;;
32323;SDS011;25666;44.350;9.222;2023-02-15T01:02:07;76.05;;;31.95;;
32323;SDS011;25666;44.350;9.222;2023-02-15T01:04:32;84.65;;;34.95;;
32323;SDS011;25666;44.350;9.222;2023-02-15T01:06:58;74.90;;;31.08;;
32323;SDS011;25666;44.350;9.222;2023-02-15T01:09:23;76.13;;;31.88;;
32323;SDS011;25666;44.350;9.222;2023-02-15T01:11:49;75.82;;;31.83;;
32323;SDS011;25666;44.350;9.222;2023-02-15T01:14:14;77.40;;;31.70;;
32323;SDS011;25666;44.350;9.222;2023-02-15T01:16:40;84.57;;;31.02;;
32323;SDS011;25666;44.350;9.222;2023-02-15T01:19:06;77.22;;;31.50;;
32323;SDS011;25666;44.350;9.222;2023-02-15T01:21:31;83.22;;;32.38;;
32323;SDS011;25666;44.350;9.222;2023-02-15T01:23:59;85.47;;;33.88;;
32323;SDS011;25666;44.350;9.222;2023-02-15T01:26:26;76.05;;;32.28;;
32323;SDS011;25666;44.350;9.222;2023-02-15T01:28:51;92.03;;;33.40;;
32323;SDS011;25666;44.350;9.222;2023-02-15T01:31:18;86.72;;;33.90;;
32323;SDS011;25666;44.350;9.222;2023-02-15T01:33:46;79.63;;;32.90;;
32323;SDS011;25666;44.350;9.222;2023-02-15T01:36:13;75.13;;;30.52;;
32323;SDS011;25666;44.350;9.222;2023-02-15T01:38:39;78.90;;;33.60;;
32323;SDS011;25666;44.350;9.222;2023-02-15T01:41:07;82.53;;;32.60;;
32323;SDS011;25666;44.350;9.222;2023-02-15T01:43:46;88.47;;;34.53;;
32323;SDS011;25666;44.350;9.222;2023-02-15T01:46:14;82.40;;;33.40;;
32323;SDS011;25666;44.350;9.222;2023-02-15T01:48:50;74.32;;;32.05;;
32323;SDS011;25666;44.350;9.222;2023-02-15T01:51:21;76.95;;;32.60;;
32323;SDS011;25666;44.350;9.222;2023-02-15T01:53:52;71.47;;;30.92;;
32323;SDS011;25666;44.350;9.222;2023-02-15T01:56:29;82.38;;;30.65;;
32323;SDS011;25666;44.350;9.222;2023-02-15T01:58:58;71.32;;;31.33;;
32323;SDS011;25666;44.350;9.222;2023-02-15T02:01:28;85.47;;;30.30;;
32323;SDS011;25666;44.350;9.222;2023-02-15T02:06:37;75.05;;;30.73;;
32323;SDS011;25666;44.350;9.222;2023-02-15T02:09:05;78.68;;;29.65;;
32323;SDS011;25666;44.350;9.222;2023-02-15T02:11:31;71.10;;;31.40;;
32323;SDS011;25666;44.350;9.222;2023-02-15T02:13:57;70.88;;;30.63;;
32323;SDS011;25666;44.350;9.222;2023-02-15T02:19:32;73.30;;;31.23;;
32323;SDS011;25666;44.350;9.222;2023-02-15T02:27:37;81.28;;;31.80;;
32323;SDS011;25666;44.350;9.222;2023-02-15T02:33:38;79.93;;;32.63;;
32323;SDS011;25666;44.350;9.222;2023-02-15T02:39:20;82.03;;;31.02;;
32323;SDS011;25666;44.350;9.222;2023-02-15T02:41:22;71.07;;;30.20;;
32323;SDS011;25666;44.350;9.222;2023-02-15T02:43:59;82.90;;;31.80;;
32323;SDS011;25666;44.350;9.222;2023-02-15T02:46:43;77.43;;;31.25;;
32323;SDS011;25666;44.350;9.222;2023-02-15T02:49:36;69.40;;;29.90;;
32323;SDS011;25666;44.350;9.222;2023-02-15T02:52:53;82.55;;;31.60;;
32323;SDS011;25666;44.350;9.222;2023-02-15T02:55:49;79.80;;;31.13;;
32323;SDS011;25666;44.350;9.222;2023-02-15T02:58:02;80.30;;;31.98;;
32323;SDS011;25666;44.350;9.222;2023-02-15T03:00:35;85.10;;;34.60;;
32323;SDS011;25666;44.350;9.222;2023-02-15T03:03:10;87.05;;;34.55;;
32323;SDS011;25666;44.350;9.222;2023-02-15T03:05:41;78.90;;;33.60;;
32323;SDS011;25666;44.350;9.222;2023-02-15T03:08:12;78.07;;;32.10;;
32323;SDS011;25666;44.350;9.222;2023-02-15T03:10:46;89.88;;;35.00;;
32323;SDS011;25666;44.350;9.222;2023-02-15T03:13:13;89.82;;;36.47;;
32323;SDS011;25666;44.350;9.222;2023-02-15T03:15:40;105.22;;;36.97;;
32323;SDS011;25666;44.350;9.222;2023-02-15T03:18:32;90.07;;;35.63;;
32323;SDS011;25666;44.350;9.222;2023-02-15T03:21:01;87.88;;;34.00;;
32323;SDS011;25666;44.350;9.222;2023-02-15T03:23:30;90.47;;;33.70;;
32323;SDS011;25666;44.350;9.222;2023-02-15T03:25:59;79.03;;;31.25;;
32323;SDS011;25666;44.350;9.222;2023-02-15T03:28:33;79.55;;;30.80;;
32323;SDS011;25666;44.350;9.222;2023-02-15T03:31:04;76.60;;;31.00;;
32323;SDS011;25666;44.350;9.222;2023-02-15T03:33:32;79.03;;;31.88;;
32323;SDS011;25666;44.350;9.222;2023-02-15T03:39:00;78.20;;;31.45;;
32323;SDS011;25666;44.350;9.222;2023-02-15T03:41:34;94.53;;;36.72;;
32323;SDS011;25666;44.350;9.222;2023-02-15T03:44:06;84.50;;;32.90;;
32323;SDS011;25666;44.350;9.222;2023-02-15T03:46:45;93.13;;;36.97;;
32323;SDS011;25666;44.350;9.222;2023-02-15T03:49:18;86.43;;;33.88;;
32323;SDS011;25666;44.350;9.222;2023-02-15T03:51:48;80.33;;;31.83;;
32323;SDS011;25666;44.350;9.222;2023-02-15T03:54:24;98.43;;;35.80;;
32323;SDS011;25666;44.350;9.222;2023-02-15T03:57:24;96.53;;;34.53;;
32323;SDS011;25666;44.350;9.222;2023-02-15T04:05:42;102.80;;;36.78;;
32323;SDS011;25666;44.350;9.222;2023-02-15T04:08:09;93.75;;;36.70;;
32323;SDS011;25666;44.350;9.222;2023-02-15T04:10:35;96.25;;;38.92;;
32323;SDS011;25666;44.350;9.222;2023-02-15T04:13:30;101.57;;;36.25;;
32323;SDS011;25666;44.350;9.222;2023-02-15T04:15:57;98.15;;;38.90;;
32323;SDS011;25666;44.350;9.222;2023-02-15T04:18:29;94.93;;;36.70;;
32323;SDS011;25666;44.350;9.222;2023-02-15T04:21:17;86.63;;;36.25;;
32323;SDS011;25666;44.350;9.222;2023-02-15T04:24:03;106.43;;;39.85;;
32323;SDS011;25666;44.350;9.222;2023-02-15T04:26:47;99.22;;;38.67;;
32323;SDS011;25666;44.350;9.222;2023-02-15T04:29:13;95.55;;;37.28;;
32323;SDS011;25666;44.350;9.222;2023-02-15T04:31:40;84.43;;;33.45;;
32323;SDS011;25666;44.350;9.222;2023-02-15T04:34:05;78.25;;;34.15;;
32323;SDS011;25666;44.350;9.222;2023-02-15T04:36:31;88.82;;;33.17;;
32323;SDS011;25666;44.350;9.222;2023-02-15T04:38:56;76.65;;;30.90;;
32323;SDS011;25666;44.350;9.222;2023-02-15T04:41:22;81.95;;;33.08;;
32323;SDS011;25666;44.350;9.222;2023-02-15T04:43:48;88.03;;;34.55;;
32323;SDS011;25666;44.350;9.222;2023-02-15T04:46:13;89.28;;;33.95;;
32323;SDS011;25666;44.350;9.222;2023-02-15T04:48:38;90.50;;;34.95;;
32323;SDS011;25666;44.350;9.222;2023-02-15T04:51:07;92.50;;;35.95;;
32323;SDS011;25666;44.350;9.222;2023-02-15T04:53:33;87.07;;;35.25;;
32323;SDS011;25666;44.350;9.222;2023-02-15T04:55:59;89.43;;;34.38;;
32323;SDS011;25666;44.350;9.222;2023-02-15T04:58:24;76.97;;;32.58;;
32323;SDS011;25666;44.350;9.222;2023-02-15T05:00:49;101.32;;;32.72;;
32323;SDS011;25666;44.350;9.222;2023-02-15T05:03:15;88.13;;;32.90;;
32323;SDS011;25666;44.350;9.222;2023-02-15T05:05:40;93.43;;;36.72;;
32323;SDS011;25666;44.350;9.222;2023-02-15T05:08:06;80.53;;;31.70;;
32323;SDS011;25666;44.350;9.222;2023-02-15T05:10:31;94.32;;;35.30;;
32323;SDS011;25666;44.350;9.222;2023-02-15T05:13:00;81.40;;;33.53;;
32323;SDS011;25666;44.350;9.222;2023-02-15T05:15:25;89.35;;;35.05;;
32323;SDS011;25666;44.350;9.222;2023-02-15T05:17:50;75.93;;;31.65;;
32323;SDS011;25666;44.350;9.222;2023-02-15T05:20:16;85.28;;;33.80;;
32323;SDS011;25666;44.350;9.222;2023-02-15T05:22:42;88.78;;;35.03;;
32323;SDS011;25666;44.350;9.222;2023-02-15T05:25:08;83.35;;;33.25;;
32323;SDS011;25666;44.350;9.222;2023-02-15T05:27:52;84.55;;;31.85;;
32323;SDS011;25666;44.350;9.222;2023-02-15T05:30:36;92.90;;;35.67;;
32323;SDS011;25666;44.350;9.222;2023-02-15T05:33:02;83.00;;;33.63;;
32323;SDS011;25666;44.350;9.222;2023-02-15T05:35:27;86.60;;;33.42;;
32323;SDS011;25666;44.350;9.222;2023-02-15T05:37:52;81.18;;;33.88;;
32323;SDS011;25666;44.350;9.222;2023-02-15T05:40:18;87.47;;;32.20;;
32323;SDS011;25666;44.350;9.222;2023-02-15T05:42:43;85.50;;;32.03;;
32323;SDS011;25666;44.350;9.222;2023-02-15T05:45:09;82.05;;;31.95;;
32323;SDS011;25666;44.350;9.222;2023-02-15T05:47:35;80.93;;;33.50;;
32323;SDS011;25666;44.350;9.222;2023-02-15T05:50:00;94.05;;;37.05;;
32323;SDS011;25666;44.350;9.222;2023-02-15T05:52:26;90.20;;;36.53;;
32323;SDS011;25666;44.350;9.222;2023-02-15T05:54:51;90.68;;;36.03;;
32323;SDS011;25666;44.350;9.222;2023-02-15T05:57:16;81.40;;;33.67;;
32323;SDS011;25666;44.350;9.222;2023-02-15T05:59:42;81.65;;;30.63;;
32323;SDS011;25666;44.350;9.222;2023-02-15T06:02:07;69.53;;;28.48;;
32323;SDS011;25666;44.350;9.222;2023-02-15T06:04:33;67.75;;;27.85;;
32323;SDS011;25666;44.350;9.222;2023-02-15T06:06:58;62.28;;;25.98;;
32323;SDS011;25666;44.350;9.222;2023-02-15T06:09:24;63.40;;;26.48;;
32323;SDS011;25666;44.350;9.222;2023-02-15T06:11:49;70.85;;;28.65;;
32323;SDS011;25666;44.350;9.222;2023-02-15T06:14:14;83.32;;;31.77;;
32323;SDS011;25666;44.350;9.222;2023-02-15T06:16:40;78.45;;;32.17;;
32323;SDS011;25666;44.350;9.222;2023-02-15T06:19:05;74.57;;;31.25;;
32323;SDS011;25666;44.350;9.222;2023-02-15T06:21:31;72.25;;;31.30;;
32323;SDS011;25666;44.350;9.222;2023-02-15T06:23:57;75.05;;;32.45;;
32323;SDS011;25666;44.350;9.222;2023-02-15T06:26:22;78.28;;;31.13;;
32323;SDS011;25666;44.350;9.222;2023-02-15T06:28:48;87.65;;;34.45;;
32323;SDS011;25666;44.350;9.222;2023-02-15T06:31:13;80.03;;;33.58;;
32323;SDS011;25666;44.350;9.222;2023-02-15T06:33:39;83.90;;;31.92;;
32323;SDS011;25666;44.350;9.222;2023-02-15T06:36:04;81.18;;;34.13;;
32323;SDS011;25666;44.350;9.222;2023-02-15T06:38:30;89.18;;;35.88;;
32323;SDS011;25666;44.350;9.222;2023-02-15T06:40:55;89.93;;;34.55;;
32323;SDS011;25666;44.350;9.222;2023-02-15T06:43:21;81.30;;;33.45;;
32323;SDS011;25666;44.350;9.222;2023-02-15T06:45:48;79.10;;;33.13;;
32323;SDS011;25666;44.350;9.222;2023-02-15T06:48:14;81.00;;;33.00;;
32323;SDS011;25666;44.350;9.222;2023-02-15T06:50:39;78.10;;;33.35;;
32323;SDS011;25666;44.350;9.222;2023-02-15T06:53:05;75.90;;;31.83;;
32323;SDS011;25666;44.350;9.222;2023-02-15T06:55:30;69.45;;;31.52;;
32323;SDS011;25666;44.350;9.222;2023-02-15T06:57:56;72.40;;;27.70;;
32323;SDS011;25666;44.350;9.222;2023-02-15T07:00:21;74.57;;;30.02;;
32323;SDS011;25666;44.350;9.222;2023-02-15T07:02:52;74.57;;;29.85;;
32323;SDS011;25666;44.350;9.222;2023-02-15T07:05:20;80.20;;;30.92;;
32323;SDS011;25666;44.350;9.222;2023-02-15T07:07:47;71.68;;;28.55;;
32323;SDS011;25666;44.350;9.222;2023-02-15T07:10:12;63.75;;;27.00;;
32323;SDS011;25666;44.350;9.222;2023-02-15T07:12:38;65.80;;;26.98;;
32323;SDS011;25666;44.350;9.222;2023-02-15T07:15:10;70.15;;;31.17;;
32323;SDS011;25666;44.350;9.222;2023-02-15T07:17:40;68.15;;;28.58;;
32323;SDS011;25666;44.350;9.222;2023-02-15T07:20:08;57.63;;;23.38;;
32323;SDS011;25666;44.350;9.222;2023-02-15T07:22:35;57.70;;;24.02;;
32323;SDS011;25666;44.350;9.222;2023-02-15T07:25:02;57.00;;;24.73;;
32323;SDS011;25666;44.350;9.222;2023-02-15T07:27:30;63.00;;;27.00;;
32323;SDS011;25666;44.350;9.222;2023-02-15T07:29:56;65.03;;;26.75;;
32323;SDS011;25666;44.350;9.222;2023-02-15T07:32:31;59.42;;;24.52;;
32323;SDS011;25666;44.350;9.222;2023-02-15T07:34:57;60.33;;;25.40;;
32323;SDS011;25666;44.350;9.222;2023-02-15T07:37:23;61.28;;;26.92;;
32323;SDS011;25666;44.350;9.222;2023-02-15T07:39:49;61.65;;;25.50;;
32323;SDS011;25666;44.350;9.222;2023-02-15T07:42:15;63.03;;;24.73;;
32323;SDS011;25666;44.350;9.222;2023-02-15T07:44:40;62.22;;;25.65;;
32323;SDS011;25666;44.350;9.222;2023-02-15T07:47:09;63.40;;;27.00;;
32323;SDS011;25666;44.350;9.222;2023-02-15T07:49:35;67.95;;;29.05;;
32323;SDS011;25666;44.350;9.222;2023-02-15T07:52:01;66.07;;;28.13;;
32323;SDS011;25666;44.350;9.222;2023-02-15T07:54:27;80.07;;;30.48;;
32323;SDS011;25666;44.350;9.222;2023-02-15T07:56:52;64.60;;;28.90;;
32323;SDS011;25666;44.350;9.222;2023-02-15T07:59:18;71.95;;;29.10;;
32323;SDS011;25666;44.350;9.222;2023-02-15T08:01:43;77.05;;;29.77;;
32323;SDS011;25666;44.350;9.222;2023-02-15T08:04:09;65.57;;;28.92;;
32323;SDS011;25666;44.350;9.222;2023-02-15T08:06:36;68.95;;;30.60;;
32323;SDS011;25666;44.350;9.222;2023-02-15T08:09:03;74.53;;;30.98;;
32323;SDS011;25666;44.350;9.222;2023-02-15T08:11:32;71.55;;;33.60;;
32323;SDS011;25666;44.350;9.222;2023-02-15T08:16:39;70.10;;;29.55;;
32323;SDS011;25666;44.350;9.222;2023-02-15T08:21:50;62.97;;;29.33;;
32323;SDS011;25666;44.350;9.222;2023-02-15T08:24:20;70.80;;;31.67;;
32323;SDS011;25666;44.350;9.222;2023-02-15T08:26:48;74.00;;;32.20;;
32323;SDS011;25666;44.350;9.222;2023-02-15T08:29:14;59.17;;;29.05;;
32323;SDS011;25666;44.350;9.222;2023-02-15T08:31:41;68.80;;;28.38;;
32323;SDS011;25666;44.350;9.222;2023-02-15T08:34:11;66.57;;;30.60;;
32323;SDS011;25666;44.350;9.222;2023-02-15T08:39:05;72.70;;;30.10;;
32323;SDS011;25666;44.350;9.222;2023-02-15T08:41:32;60.00;;;27.90;;
32323;SDS011;25666;44.350;9.222;2023-02-15T08:44:06;70.95;;;31.52;;
32323;SDS011;25666;44.350;9.222;2023-02-15T08:46:34;57.63;;;27.98;;
32323;SDS011;25666;44.350;9.222;2023-02-15T08:49:01;62.28;;;27.92;;
32323;SDS011;25666;44.350;9.222;2023-02-15T08:51:28;57.03;;;27.00;;
32323;SDS011;25666;44.350;9.222;2023-02-15T08:53:59;62.65;;;26.67;;
32323;SDS011;25666;44.350;9.222;2023-02-15T08:56:27;57.78;;;28.45;;
32323;SDS011;25666;44.350;9.222;2023-02-15T08:58:54;56.10;;;26.88;;
32323;SDS011;25666;44.350;9.222;2023-02-15T09:01:21;53.72;;;24.30;;
32323;SDS011;25666;44.350;9.222;2023-02-15T09:03:51;45.90;;;21.65;;
32323;SDS011;25666;44.350;9.222;2023-02-15T09:06:22;45.80;;;23.48;;
32323;SDS011;25666;44.350;9.222;2023-02-15T09:08:48;44.78;;;22.13;;
32323;SDS011;25666;44.350;9.222;2023-02-15T09:11:19;49.45;;;23.40;;
32323;SDS011;25666;44.350;9.222;2023-02-15T09:13:49;49.05;;;24.30;;
32323;SDS011;25666;44.350;9.222;2023-02-15T09:16:20;45.10;;;22.97;;
32323;SDS011;25666;44.350;9.222;2023-02-15T09:18:47;52.55;;;26.80;;
32323;SDS011;25666;44.350;9.222;2023-02-15T09:21:14;60.78;;;24.60;;
32323;SDS011;25666;44.350;9.222;2023-02-15T09:23:42;49.00;;;26.02;;
32323;SDS011;25666;44.350;9.222;2023-02-15T09:26:12;45.03;;;22.60;;
32323;SDS011;25666;44.350;9.222;2023-02-15T09:28:40;43.83;;;22.85;;
32323;SDS011;25666;44.350;9.222;2023-02-15T09:33:33;58.30;;;24.58;;
32323;SDS011;25666;44.350;9.222;2023-02-15T09:36:00;55.40;;;26.77;;
32323;SDS011;25666;44.350;9.222;2023-02-15T09:38:26;62.45;;;28.48;;
32323;SDS011;25666;44.350;9.222;2023-02-15T09:43:39;51.45;;;25.80;;
32323;SDS011;25666;44.350;9.222;2023-02-15T09:46:27;56.65;;;25.35;;
32323;SDS011;25666;44.350;9.222;2023-02-15T09:49:56;51.63;;;25.17;;
32323;SDS011;25666;44.350;9.222;2023-02-15T10:17:28;33.50;;;17.67;;
32323;SDS011;25666;44.350;9.222;2023-02-15T10:20:01;36.20;;;18.60;;
32323;SDS011;25666;44.350;9.222;2023-02-15T10:25:28;37.10;;;18.58;;
32323;SDS011;25666;44.350;9.222;2023-02-15T10:28:15;60.67;;;27.05;;
32323;SDS011;25666;44.350;9.222;2023-02-15T10:30:46;59.40;;;26.08;;
32323;SDS011;25666;44.350;9.222;2023-02-15T10:36:10;53.78;;;23.70;;
32323;SDS011;25666;44.350;9.222;2023-02-15T10:38:48;44.75;;;21.25;;
32323;SDS011;25666;44.350;9.222;2023-02-15T10:41:38;34.95;;;19.08;;
32323;SDS011;25666;44.350;9.222;2023-02-15T10:44:28;38.63;;;19.38;;
32323;SDS011;25666;44.350;9.222;2023-02-15T10:52:54;46.67;;;22.25;;
32323;SDS011;25666;44.350;9.222;2023-02-15T10:59:04;38.78;;;20.20;;
32323;SDS011;25666;44.350;9.222;2023-02-15T11:07:04;34.95;;;18.02;;
32323;SDS011;25666;44.350;9.222;2023-02-15T11:09:40;32.45;;;17.05;;
32323;SDS011;25666;44.350;9.222;2023-02-15T11:12:11;35.87;;;19.17;;
32323;SDS011;25666;44.350;9.222;2023-02-15T11:17:25;43.50;;;19.17;;
32323;SDS011;25666;44.350;9.222;2023-02-15T11:20:19;40.78;;;19.25;;
32323;SDS011;25666;44.350;9.222;2023-02-15T11:22:50;37.55;;;18.40;;
32323;SDS011;25666;44.350;9.222;2023-02-15T11:25:25;37.42;;;20.23;;
32323;SDS011;25666;44.350;9.222;2023-02-15T11:27:55;40.50;;;21.10;;
32323;SDS011;25666;44.350;9.222;2023-02-15T11:30:22;38.90;;;21.73;;
32323;SDS011;25666;44.350;9.222;2023-02-15T11:32:50;42.67;;;21.55;;
32323;SDS011;25666;44.350;9.222;2023-02-15T11:40:52;43.33;;;21.98;;
32323;SDS011;25666;44.350;9.222;2023-02-15T11:46:07;36.67;;;20.20;;
32323;SDS011;25666;44.350;9.222;2023-02-15T11:48:35;38.72;;;21.95;;
32323;SDS011;25666;44.350;9.222;2023-02-15T11:51:01;39.08;;;21.05;;
32323;SDS011;25666;44.350;9.222;2023-02-15T11:53:28;43.63;;;22.40;;
32323;SDS011;25666;44.350;9.222;2023-02-15T11:55:58;47.38;;;21.63;;
32323;SDS011;25666;44.350;9.222;2023-02-15T12:01:00;48.60;;;22.85;;
32323;SDS011;25666;44.350;9.222;2023-02-15T12:03:43;40.60;;;20.85;;
32323;SDS011;25666;44.350;9.222;2023-02-15T12:06:32;40.53;;;21.08;;
32323;SDS011;25666;44.350;9.222;2023-02-15T12:09:03;37.30;;;18.70;;
32323;SDS011;25666;44.350;9.222;2023-02-15T12:11:38;35.25;;;19.83;;
32323;SDS011;25666;44.350;9.222;2023-02-15T12:14:09;35.78;;;18.90;;
32323;SDS011;25666;44.350;9.222;2023-02-15T12:16:43;39.47;;;18.83;;
32323;SDS011;25666;44.350;9.222;2023-02-15T12:22:02;38.08;;;19.60;;
32323;SDS011;25666;44.350;9.222;2023-02-15T12:24:30;38.03;;;20.23;;
32323;SDS011;25666;44.350;9.222;2023-02-15T12:29:50;35.90;;;21.17;;
32323;SDS011;25666;44.350;9.222;2023-02-15T12:32:27;43.40;;;22.83;;
32323;SDS011;25666;44.350;9.222;2023-02-15T12:34:55;49.22;;;23.67;;
32323;SDS011;25666;44.350;9.222;2023-02-15T12:37:27;47.00;;;23.52;;
32323;SDS011;25666;44.350;9.222;2023-02-15T12:40:00;54.22;;;23.73;;
32323;SDS011;25666;44.350;9.222;2023-02-15T12:42:28;45.05;;;22.63;;
32323;SDS011;25666;44.350;9.222;2023-02-15T12:47:46;38.40;;;20.08;;
32323;SDS011;25666;44.350;9.222;2023-02-15T12:50:32;40.83;;;21.80;;
32323;SDS011;25666;44.350;9.222;2023-02-15T12:53:11;43.00;;;22.85;;
32323;SDS011;25666;44.350;9.222;2023-02-15T12:55:40;43.30;;;21.30;;
32323;SDS011;25666;44.350;9.222;2023-02-15T12:58:16;43.53;;;23.10;;
32323;SDS011;25666;44.350;9.222;2023-02-15T13:00:43;45.40;;;23.65;;
32323;SDS011;25666;44.350;9.222;2023-02-15T13:03:24;48.90;;;24.08;;
32323;SDS011;25666;44.350;9.222;2023-02-15T13:05:53;44.30;;;23.27;;
32323;SDS011;25666;44.350;9.222;2023-02-15T13:08:22;40.90;;;21.85;;
32323;SDS011;25666;44.350;9.222;2023-02-15T13:13:27;46.72;;;22.92;;
32323;SDS011;25666;44.350;9.222;2023-02-15T13:15:59;40.03;;;22.67;;
32323;SDS011;25666;44.350;9.222;2023-02-15T13:21:11;47.05;;;25.13;;
32323;SDS011;25666;44.350;9.222;2023-02-15T13:23:48;46.42;;;24.77;;
32323;SDS011;25666;44.350;9.222;2023-02-15T13:26:19;44.95;;;23.45;;
32323;SDS011;25666;44.350;9.222;2023-02-15T13:28:48;44.22;;;23.90;;
32323;SDS011;25666;44.350;9.222;2023-02-15T13:31:19;46.30;;;25.10;;
32323;SDS011;25666;44.350;9.222;2023-02-15T13:33:50;47.42;;;25.10;;
32323;SDS011;25666;44.350;9.222;2023-02-15T13:36:33;49.20;;;25.23;;
32323;SDS011;25666;44.350;9.222;2023-02-15T13:39:14;46.78;;;24.77;;
32323;SDS011;25666;44.350;9.222;2023-02-15T13:41:48;47.22;;;23.75;;
32323;SDS011;25666;44.350;9.222;2023-02-15T13:47:59;40.53;;;23.67;;
32323;SDS011;25666;44.350;9.222;2023-02-15T13:59:24;46.67;;;23.38;;
32323;SDS011;25666;44.350;9.222;2023-02-15T14:10:29;42.20;;;23.50;;
32323;SDS011;25666;44.350;9.222;2023-02-15T14:26:44;39.15;;;21.67;;
32323;SDS011;25666;44.350;9.222;2023-02-15T14:31:47;46.60;;;24.58;;
32323;SDS011;25666;44.350;9.222;2023-02-15T14:34:22;47.47;;;26.23;;
32323;SDS011;25666;44.350;9.222;2023-02-15T14:36:52;40.65;;;24.65;;
32323;SDS011;25666;44.350;9.222;2023-02-15T14:45:00;47.90;;;25.50;;
32323;SDS011;25666;44.350;9.222;2023-02-15T14:47:32;54.80;;;28.85;;
32323;SDS011;25666;44.350;9.222;2023-02-15T14:55:39;46.33;;;25.05;;
32323;SDS011;25666;44.350;9.222;2023-02-15T14:58:09;53.58;;;27.33;;
32323;SDS011;25666;44.350;9.222;2023-02-15T15:03:10;50.40;;;25.67;;
32323;SDS011;25666;44.350;9.222;2023-02-15T15:05:46;54.08;;;28.52;;
32323;SDS011;25666;44.350;9.222;2023-02-15T15:08:21;48.88;;;25.77;;
32323;SDS011;25666;44.350;9.222;2023-02-15T15:13:55;59.63;;;29.83;;
32323;SDS011;25666;44.350;9.222;2023-02-15T15:16:55;61.05;;;28.05;;
32323;SDS011;25666;44.350;9.222;2023-02-15T15:19:57;56.58;;;27.20;;
32323;SDS011;25666;44.350;9.222;2023-02-15T15:22:17;46.63;;;26.67;;
32323;SDS011;25666;44.350;9.222;2023-02-15T15:28:11;58.55;;;30.13;;
32323;SDS011;25666;44.350;9.222;2023-02-15T15:41:15;48.33;;;23.95;;
32323;SDS011;25666;44.350;9.222;2023-02-15T15:46:44;53.75;;;26.15;;
32323;SDS011;25666;44.350;9.222;2023-02-15T15:49:17;52.72;;;26.70;;
32323;SDS011;25666;44.350;9.222;2023-02-15T15:51:45;53.15;;;25.98;;
32323;SDS011;25666;44.350;9.222;2023-02-15T15:54:14;51.97;;;26.67;;
32323;SDS011;25666;44.350;9.222;2023-02-15T15:56:43;50.35;;;25.48;;
32323;SDS011;25666;44.350;9.222;2023-02-15T15:59:16;55.67;;;28.52;;
32323;SDS011;25666;44.350;9.222;2023-02-15T16:01:45;49.38;;;26.25;;
32323;SDS011;25666;44.350;9.222;2023-02-15T16:04:11;47.85;;;24.92;;
32323;SDS011;25666;44.350;9.222;2023-02-15T16:06:39;50.42;;;27.73;;
32323;SDS011;25666;44.350;9.222;2023-02-15T16:09:39;51.53;;;27.30;;
32323;SDS011;25666;44.350;9.222;2023-02-15T16:11:57;51.58;;;27.00;;
32323;SDS011;25666;44.350;9.222;2023-02-15T16:14:37;50.53;;;25.52;;
32323;SDS011;25666;44.350;9.222;2023-02-15T16:17:06;53.80;;;28.13;;
32323;SDS011;25666;44.350;9.222;2023-02-15T16:19:39;49.63;;;26.17;;
32323;SDS011;25666;44.350;9.222;2023-02-15T16:22:13;52.85;;;26.92;;
32323;SDS011;25666;44.350;9.222;2023-02-15T16:29:56;55.03;;;25.33;;
32323;SDS011;25666;44.350;9.222;2023-02-15T16:32:23;54.08;;;26.90;;
32323;SDS011;25666;44.350;9.222;2023-02-15T16:35:01;62.80;;;29.52;;
32323;SDS011;25666;44.350;9.222;2023-02-15T16:37:31;62.45;;;30.23;;
32323;SDS011;25666;44.350;9.222;2023-02-15T16:39:58;50.20;;;26.92;;
32323;SDS011;25666;44.350;9.222;2023-02-15T16:42:24;47.78;;;25.65;;
32323;SDS011;25666;44.350;9.222;2023-02-15T16:44:55;49.05;;;24.23;;
32323;SDS011;25666;44.350;9.222;2023-02-15T16:47:30;48.33;;;25.92;;
32323;SDS011;25666;44.350;9.222;2023-02-15T16:49:59;60.85;;;27.27;;
32323;SDS011;25666;44.350;9.222;2023-02-15T16:52:27;54.70;;;25.42;;
32323;SDS011;25666;44.350;9.222;2023-02-15T16:54:58;57.50;;;26.30;;
32323;SDS011;25666;44.350;9.222;2023-02-15T16:57:27;57.33;;;27.83;;
32323;SDS011;25666;44.350;9.222;2023-02-15T17:00:03;61.10;;;29.27;;
32323;SDS011;25666;44.350;9.222;2023-02-15T17:02:33;55.72;;;28.30;;
32323;SDS011;25666;44.350;9.222;2023-02-15T17:05:01;51.53;;;24.00;;
32323;SDS011;25666;44.350;9.222;2023-02-15T17:07:30;55.60;;;28.58;;
32323;SDS011;25666;44.350;9.222;2023-02-15T17:09:56;46.67;;;25.15;;
32323;SDS011;25666;44.350;9.222;2023-02-15T17:15:23;55.25;;;28.20;;
32323;SDS011;25666;44.350;9.222;2023-02-15T17:18:01;54.25;;;28.35;;
32323;SDS011;25666;44.350;9.222;2023-02-15T17:20:48;57.97;;;27.58;;
32323;SDS011;25666;44.350;9.222;2023-02-15T17:25:52;59.25;;;28.15;;
32323;SDS011;25666;44.350;9.222;2023-02-15T17:28:19;56.25;;;27.38;;
32323;SDS011;25666;44.350;9.222;2023-02-15T17:30:49;62.40;;;30.38;;
32323;SDS011;25666;44.350;9.222;2023-02-15T17:33:22;65.80;;;30.02;;
32323;SDS011;25666;44.350;9.222;2023-02-15T17:36:11;64.47;;;28.65;;
32323;SDS011;25666;44.350;9.222;2023-02-15T17:38:42;68.10;;;29.48;;
32323;SDS011;25666;44.350;9.222;2023-02-15T17:41:27;62.60;;;29.45;;
32323;SDS011;25666;44.350;9.222;2023-02-15T17:43:54;65.85;;;27.52;;
32323;SDS011;25666;44.350;9.222;2023-02-15T17:46:20;63.92;;;29.52;;
32323;SDS011;25666;44.350;9.222;2023-02-15T17:48:50;62.90;;;29.13;;
32323;SDS011;25666;44.350;9.222;2023-02-15T17:51:17;56.30;;;28.13;;
32323;SDS011;25666;44.350;9.222;2023-02-15T17:53:44;70.28;;;32.97;;